sensor_id;sensor_type;location;lat;lon;timestamp;pressure;altitude;pressure_sealevel;temperature;humidity
37202;BME280;37799;52.390;6.136;2022-12-18T00:00:42;102868.34;;;-4.63;100.00
37202;BME280;37799;52.390;6.136;2022-12-18T00:03:08;102859.97;;;-4.87;100.00
37202;BME280;37799;52.390;6.136;2022-12-18T00:05:33;102858.84;;;-4.79;100.00
37202;BME280;37799;52.390;6.136;2022-12-18T00:07:58;102855.38;;;-4.92;100.00
37202;BME280;37799;52.390;6.136;2022-12-18T00:10:24;102850.00;;;-5.09;100.00
37202;BME280;37799;52.390;6.136;2022-12-18T00:12:49;102858.81;;;-5.15;100.00
37202;BME280;37799;52.390;6.136;2022-12-18T00:15:15;102863.22;;;-5.24;100.00
37202;BME280;37799;52.390;6.136;2022-12-18T00:17:40;102859.72;;;-5.26;100.00
37202;BME280;37799;52.390;6.136;2022-12-18T00:20:06;102859.94;;;-5.35;100.00
37202;BME280;37799;52.390;6.136;2022-12-18T00:22:31;102856.19;;;-5.17;100.00
37202;BME280;37799;52.390;6.136;2022-12-18T00:24:57;102846.09;;;-5.28;100.00
37202;BME280;37799;52.390;6.136;2022-12-18T00:27:22;102831.16;;;-5.25;100.00
37202;BME280;37799;52.390;6.136;2022-12-18T00:29:48;102824.16;;;-5.29;100.00
37202;BME280;37799;52.390;6.136;2022-12-18T00:32:13;102824.88;;;-5.07;100.00
37202;BME280;37799;52.390;6.136;2022-12-18T00:34:38;102823.22;;;-5.07;100.00
37202;BME280;37799;52.390;6.136;2022-12-18T00:37:04;102827.69;;;-4.91;100.00
37202;BME280;37799;52.390;6.136;2022-12-18T00:39:29;102840.47;;;-5.13;100.00
37202;BME280;37799;52.390;6.136;2022-12-18T00:41:54;102833.00;;;-5.11;100.00
37202;BME280;37799;52.390;6.136;2022-12-18T00:44:38;102843.38;;;-4.95;100.00
37202;BME280;37799;52.390;6.136;2022-12-18T00:47:04;102837.75;;;-5.16;100.00
37202;BME280;37799;52.390;6.136;2022-12-18T00:49:29;102837.88;;;-5.26;100.00
37202;BME280;37799;52.390;6.136;2022-12-18T00:51:54;102838.31;;;-5.31;100.00
37202;BME280;37799;52.390;6.136;2022-12-18T00:54:19;102837.34;;;-5.33;100.00
37202;BME280;37799;52.390;6.136;2022-12-18T00:56:45;102847.88;;;-5.27;100.00
37202;BME280;37799;52.390;6.136;2022-12-18T00:59:10;102843.59;;;-5.28;100.00
37202;BME280;37799;52.390;6.136;2022-12-18T01:01:35;102843.28;;;-5.45;100.00
37202;BME280;37799;52.390;6.136;2022-12-18T01:04:02;102843.91;;;-5.36;100.00
37202;BME280;37799;52.390;6.136;2022-12-18T01:06:27;102843.38;;;-5.31;100.00
37202;BME280;37799;52.390;6.136;2022-12-18T01:08:53;102853.69;;;-5.28;100.00
37202;BME280;37799;52.390;6.136;2022-12-18T01:11:20;102843.50;;;-5.42;100.00
37202;BME280;37799;52.390;6.136;2022-12-18T01:13:45;102846.34;;;-5.49;100.00
37202;BME280;37799;52.390;6.136;2022-12-18T01:16:12;102854.47;;;-5.53;100.00
37202;BME280;37799;52.390;6.136;2022-12-18T01:18:38;102845.25;;;-5.41;100.00
37202;BME280;37799;52.390;6.136;2022-12-18T01:21:12;102830.56;;;-5.58;100.00
37202;BME280;37799;52.390;6.136;2022-12-18T01:23:38;102830.97;;;-5.52;100.00
37202;BME280;37799;52.390;6.136;2022-12-18T01:26:05;102833.97;;;-5.46;100.00
37202;BME280;37799;52.390;6.136;2022-12-18T01:28:31;102837.56;;;-5.77;100.00
37202;BME280;37799;52.390;6.136;2022-12-18T01:30:56;102834.50;;;-5.61;100.00
37202;BME280;37799;52.390;6.136;2022-12-18T01:33:21;102825.72;;;-5.78;100.00
37202;BME280;37799;52.390;6.136;2022-12-18T01:35:47;102833.50;;;-5.75;100.00
37202;BME280;37799;52.390;6.136;2022-12-18T01:38:12;102843.50;;;-5.77;100.00
37202;BME280;37799;52.390;6.136;2022-12-18T01:40:37;102842.19;;;-5.95;100.00
37202;BME280;37799;52.390;6.136;2022-12-18T01:43:03;102841.75;;;-6.01;100.00
37202;BME280;37799;52.390;6.136;2022-12-18T01:45:30;102842.06;;;-6.08;100.00
37202;BME280;37799;52.390;6.136;2022-12-18T01:47:59;102849.41;;;-6.00;100.00
37202;BME280;37799;52.390;6.136;2022-12-18T01:53:02;102853.25;;;-6.05;100.00
37202;BME280;37799;52.390;6.136;2022-12-18T01:55:32;102847.84;;;-6.21;100.00
37202;BME280;37799;52.390;6.136;2022-12-18T01:58:00;102851.56;;;-6.28;100.00
37202;BME280;37799;52.390;6.136;2022-12-18T02:00:26;102860.75;;;-6.28;100.00
37202;BME280;37799;52.390;6.136;2022-12-18T02:02:53;102864.53;;;-6.23;100.00
37202;BME280;37799;52.390;6.136;2022-12-18T02:05:33;102856.34;;;-6.42;100.00
37202;BME280;37799;52.390;6.136;2022-12-18T02:10:53;102862.19;;;-6.54;100.00
37202;BME280;37799;52.390;6.136;2022-12-18T02:13:29;102862.84;;;-6.56;100.00
37202;BME280;37799;52.390;6.136;2022-12-18T02:18:35;102857.13;;;-6.65;100.00
37202;BME280;37799;52.390;6.136;2022-12-18T02:21:15;102865.22;;;-6.69;100.00
37202;BME280;37799;52.390;6.136;2022-12-18T02:23:56;102849.09;;;-6.71;100.00
37202;BME280;37799;52.390;6.136;2022-12-18T02:26:34;102849.44;;;-6.67;100.00
37202;BME280;37799;52.390;6.136;2022-12-18T02:29:10;102853.81;;;-6.76;100.00
37202;BME280;37799;52.390;6.136;2022-12-18T02:31:42;102851.41;;;-6.74;100.00
37202;BME280;37799;52.390;6.136;2022-12-18T02:34:09;102852.94;;;-6.76;100.00
37202;BME280;37799;52.390;6.136;2022-12-18T02:36:36;102858.59;;;-6.79;100.00
37202;BME280;37799;52.390;6.136;2022-12-18T02:39:05;102863.41;;;-6.82;100.00
37202;BME280;37799;52.390;6.136;2022-12-18T02:41:32;102863.69;;;-6.89;100.00
37202;BME280;37799;52.390;6.136;2022-12-18T02:44:00;102862.69;;;-6.91;100.00
37202;BME280;37799;52.390;6.136;2022-12-18T02:46:35;102873.19;;;-6.97;100.00
37202;BME280;37799;52.390;6.136;2022-12-18T02:49:11;102864.91;;;-7.06;100.00
37202;BME280;37799;52.390;6.136;2022-12-18T02:51:40;102859.47;;;-7.00;100.00
37202;BME280;37799;52.390;6.136;2022-12-18T02:54:30;102859.97;;;-7.04;100.00
37202;BME280;37799;52.390;6.136;2022-12-18T02:57:04;102856.34;;;-7.08;100.00
37202;BME280;37799;52.390;6.136;2022-12-18T02:59:45;102846.69;;;-7.14;100.00
37202;BME280;37799;52.390;6.136;2022-12-18T03:02:31;102839.53;;;-7.19;100.00
37202;BME280;37799;52.390;6.136;2022-12-18T03:05:05;102833.63;;;-7.20;100.00
37202;BME280;37799;52.390;6.136;2022-12-18T03:08:06;102825.69;;;-7.14;100.00
37202;BME280;37799;52.390;6.136;2022-12-18T03:10:36;102812.84;;;-7.17;100.00
37202;BME280;37799;52.390;6.136;2022-12-18T03:13:06;102808.94;;;-7.14;100.00
37202;BME280;37799;52.390;6.136;2022-12-18T03:15:45;102816.66;;;-7.00;100.00
37202;BME280;37799;52.390;6.136;2022-12-18T03:18:34;102828.91;;;-6.83;100.00
37202;BME280;37799;52.390;6.136;2022-12-18T03:21:05;102829.22;;;-6.78;100.00
37202;BME280;37799;52.390;6.136;2022-12-18T03:23:35;102828.66;;;-6.86;100.00
37202;BME280;37799;52.390;6.136;2022-12-18T03:26:05;102824.91;;;-6.91;100.00
37202;BME280;37799;52.390;6.136;2022-12-18T03:28:37;102828.28;;;-6.91;100.00
37202;BME280;37799;52.390;6.136;2022-12-18T03:31:05;102831.19;;;-7.08;100.00
37202;BME280;37799;52.390;6.136;2022-12-18T03:33:52;102823.41;;;-7.11;100.00
37202;BME280;37799;52.390;6.136;2022-12-18T03:36:18;102832.81;;;-7.08;100.00
37202;BME280;37799;52.390;6.136;2022-12-18T03:38:43;102826.94;;;-7.19;100.00
37202;BME280;37799;52.390;6.136;2022-12-18T03:49:16;102812.78;;;-7.29;100.00
37202;BME280;37799;52.390;6.136;2022-12-18T03:51:49;102821.06;;;-7.30;100.00
37202;BME280;37799;52.390;6.136;2022-12-18T03:54:18;102816.31;;;-7.27;100.00
37202;BME280;37799;52.390;6.136;2022-12-18T03:56:47;102816.78;;;-7.31;100.00
37202;BME280;37799;52.390;6.136;2022-12-18T03:59:16;102817.19;;;-7.26;100.00
37202;BME280;37799;52.390;6.136;2022-12-18T04:01:46;102806.38;;;-7.35;100.00
37202;BME280;37799;52.390;6.136;2022-12-18T04:04:13;102803.53;;;-7.40;100.00
37202;BME280;37799;52.390;6.136;2022-12-18T04:06:40;102807.81;;;-7.49;100.00
37202;BME280;37799;52.390;6.136;2022-12-18T04:09:07;102802.19;;;-7.25;100.00
37202;BME280;37799;52.390;6.136;2022-12-18T04:11:33;102797.19;;;-7.35;100.00
37202;BME280;37799;52.390;6.136;2022-12-18T04:13:58;102795.09;;;-7.40;100.00
37202;BME280;37799;52.390;6.136;2022-12-18T04:16:25;102797.00;;;-7.48;100.00
37202;BME280;37799;52.390;6.136;2022-12-18T04:18:50;102794.91;;;-7.32;100.00
37202;BME280;37799;52.390;6.136;2022-12-18T04:21:15;102795.56;;;-7.34;100.00
37202;BME280;37799;52.390;6.136;2022-12-18T04:23:41;102797.50;;;-7.42;100.00
37202;BME280;37799;52.390;6.136;2022-12-18T04:26:06;102793.50;;;-7.50;100.00
37202;BME280;37799;52.390;6.136;2022-12-18T04:28:31;102787.69;;;-7.49;100.00
37202;BME280;37799;52.390;6.136;2022-12-18T04:30:57;102791.34;;;-7.56;100.00
37202;BME280;37799;52.390;6.136;2022-12-18T04:33:22;102797.28;;;-7.55;100.00
37202;BME280;37799;52.390;6.136;2022-12-18T04:35:47;102783.84;;;-7.34;100.00
37202;BME280;37799;52.390;6.136;2022-12-18T04:38:13;102791.00;;;-7.06;100.00
37202;BME280;37799;52.390;6.136;2022-12-18T04:40:38;102793.34;;;-7.20;100.00
37202;BME280;37799;52.390;6.136;2022-12-18T04:43:04;102792.34;;;-7.22;100.00
37202;BME280;37799;52.390;6.136;2022-12-18T04:45:31;102792.66;;;-7.29;100.00
37202;BME280;37799;52.390;6.136;2022-12-18T04:47:57;102791.59;;;-7.21;100.00
37202;BME280;37799;52.390;6.136;2022-12-18T04:50:23;102796.69;;;-7.09;100.00
37202;BME280;37799;52.390;6.136;2022-12-18T04:52:48;102797.13;;;-7.15;100.00
37202;BME280;37799;52.390;6.136;2022-12-18T04:55:13;102799.63;;;-7.15;100.00
37202;BME280;37799;52.390;6.136;2022-12-18T04:57:38;102801.78;;;-6.97;100.00
37202;BME280;37799;52.390;6.136;2022-12-18T05:00:04;102801.50;;;-7.12;100.00
37202;BME280;37799;52.390;6.136;2022-12-18T05:02:31;102802.59;;;-7.08;100.00
37202;BME280;37799;52.390;6.136;2022-12-18T05:04:56;102796.56;;;-7.10;100.00
37202;BME280;37799;52.390;6.136;2022-12-18T05:07:21;102798.06;;;-7.02;100.00
37202;BME280;37799;52.390;6.136;2022-12-18T05:09:47;102798.09;;;-7.13;100.00
37202;BME280;37799;52.390;6.136;2022-12-18T05:12:12;102798.22;;;-7.11;100.00
37202;BME280;37799;52.390;6.136;2022-12-18T05:14:37;102801.63;;;-7.10;100.00
37202;BME280;37799;52.390;6.136;2022-12-18T05:17:02;102811.16;;;-7.06;100.00
37202;BME280;37799;52.390;6.136;2022-12-18T05:19:28;102812.22;;;-7.15;100.00
37202;BME280;37799;52.390;6.136;2022-12-18T05:21:53;102816.91;;;-6.97;100.00
37202;BME280;37799;52.390;6.136;2022-12-18T05:24:18;102823.47;;;-6.99;100.00
37202;BME280;37799;52.390;6.136;2022-12-18T05:26:44;102822.34;;;-7.03;100.00
37202;BME280;37799;52.390;6.136;2022-12-18T05:29:09;102826.03;;;-7.09;100.00
37202;BME280;37799;52.390;6.136;2022-12-18T05:31:37;102818.81;;;-7.05;100.00
37202;BME280;37799;52.390;6.136;2022-12-18T05:34:03;102820.88;;;-6.89;100.00
37202;BME280;37799;52.390;6.136;2022-12-18T05:36:28;102819.91;;;-6.79;100.00
37202;BME280;37799;52.390;6.136;2022-12-18T05:38:53;102827.31;;;-6.93;100.00
37202;BME280;37799;52.390;6.136;2022-12-18T05:41:19;102827.50;;;-7.01;100.00
37202;BME280;37799;52.390;6.136;2022-12-18T05:43:44;102830.88;;;-6.79;100.00
37202;BME280;37799;52.390;6.136;2022-12-18T05:46:15;102840.78;;;-6.92;100.00
37202;BME280;37799;52.390;6.136;2022-12-18T05:48:41;102835.28;;;-6.98;100.00
37202;BME280;37799;52.390;6.136;2022-12-18T05:51:09;102837.97;;;-6.85;100.00
37202;BME280;37799;52.390;6.136;2022-12-18T05:53:36;102844.72;;;-6.96;100.00
37202;BME280;37799;52.390;6.136;2022-12-18T05:56:06;102842.34;;;-7.04;100.00
37202;BME280;37799;52.390;6.136;2022-12-18T05:58:32;102850.84;;;-6.92;100.00
37202;BME280;37799;52.390;6.136;2022-12-18T06:00:58;102849.03;;;-6.83;100.00
37202;BME280;37799;52.390;6.136;2022-12-18T06:03:30;102845.34;;;-6.98;100.00
37202;BME280;37799;52.390;6.136;2022-12-18T06:05:55;102839.84;;;-7.04;100.00
37202;BME280;37799;52.390;6.136;2022-12-18T06:08:21;102835.44;;;-7.07;100.00
37202;BME280;37799;52.390;6.136;2022-12-18T06:10:50;102836.38;;;-6.95;100.00
37202;BME280;37799;52.390;6.136;2022-12-18T06:13:16;102834.47;;;-7.09;100.00
37202;BME280;37799;52.390;6.136;2022-12-18T06:15:42;102828.50;;;-6.99;100.00
37202;BME280;37799;52.390;6.136;2022-12-18T06:18:07;102831.84;;;-6.89;100.00
37202;BME280;37799;52.390;6.136;2022-12-18T06:20:33;102825.22;;;-6.98;100.00
37202;BME280;37799;52.390;6.136;2022-12-18T06:22:58;102826.53;;;-6.92;100.00
37202;BME280;37799;52.390;6.136;2022-12-18T06:25:24;102826.44;;;-6.93;100.00
37202;BME280;37799;52.390;6.136;2022-12-18T06:27:49;102811.63;;;-7.00;100.00
37202;BME280;37799;52.390;6.136;2022-12-18T06:30:15;102812.72;;;-6.97;100.00
37202;BME280;37799;52.390;6.136;2022-12-18T06:32:40;102802.06;;;-6.82;100.00
37202;BME280;37799;52.390;6.136;2022-12-18T06:35:06;102804.53;;;-6.94;100.00
37202;BME280;37799;52.390;6.136;2022-12-18T06:37:31;102814.06;;;-6.90;100.00
37202;BME280;37799;52.390;6.136;2022-12-18T06:39:57;102813.66;;;-6.85;100.00
37202;BME280;37799;52.390;6.136;2022-12-18T06:42:23;102812.09;;;-6.94;100.00
37202;BME280;37799;52.390;6.136;2022-12-18T06:44:48;102806.41;;;-6.92;100.00
37202;BME280;37799;52.390;6.136;2022-12-18T06:47:13;102804.69;;;-6.81;100.00
37202;BME280;37799;52.390;6.136;2022-12-18T06:49:39;102785.19;;;-6.84;100.00
37202;BME280;37799;52.390;6.136;2022-12-18T06:52:04;102798.94;;;-6.90;100.00
37202;BME280;37799;52.390;6.136;2022-12-18T06:54:29;102789.63;;;-6.91;100.00
37202;BME280;37799;52.390;6.136;2022-12-18T06:56:56;102789.13;;;-6.87;100.00
37202;BME280;37799;52.390;6.136;2022-12-18T06:59:21;102788.00;;;-6.91;100.00
37202;BME280;37799;52.390;6.136;2022-12-18T07:01:47;102783.88;;;-6.57;100.00
37202;BME280;37799;52.390;6.136;2022-12-18T07:04:12;102781.13;;;-6.60;100.00
37202;BME280;37799;52.390;6.136;2022-12-18T07:06:37;102775.38;;;-6.69;100.00
37202;BME280;37799;52.390;6.136;2022-12-18T07:09:03;102775.22;;;-6.82;100.00
37202;BME280;37799;52.390;6.136;2022-12-18T07:11:28;102771.41;;;-6.89;100.00
37202;BME280;37799;52.390;6.136;2022-12-18T07:13:53;102771.25;;;-6.90;100.00
37202;BME280;37799;52.390;6.136;2022-12-18T07:16:20;102779.09;;;-6.75;100.00
37202;BME280;37799;52.390;6.136;2022-12-18T07:18:46;102781.91;;;-6.82;100.00
37202;BME280;37799;52.390;6.136;2022-12-18T07:21:14;102771.84;;;-6.82;100.00
37202;BME280;37799;52.390;6.136;2022-12-18T07:23:40;102772.50;;;-6.85;100.00
37202;BME280;37799;52.390;6.136;2022-12-18T07:26:08;102767.06;;;-7.01;100.00
37202;BME280;37799;52.390;6.136;2022-12-18T07:28:34;102775.25;;;-7.04;100.00
37202;BME280;37799;52.390;6.136;2022-12-18T07:31:05;102774.53;;;-6.91;100.00
37202;BME280;37799;52.390;6.136;2022-12-18T07:33:32;102777.00;;;-6.81;100.00
37202;BME280;37799;52.390;6.136;2022-12-18T07:36:05;102782.25;;;-6.78;100.00
37202;BME280;37799;52.390;6.136;2022-12-18T07:38:35;102777.75;;;-6.82;100.00
37202;BME280;37799;52.390;6.136;2022-12-18T07:41:01;102779.13;;;-6.97;100.00
37202;BME280;37799;52.390;6.136;2022-12-18T07:43:27;102784.38;;;-6.94;100.00
37202;BME280;37799;52.390;6.136;2022-12-18T07:45:52;102790.53;;;-6.91;100.00
37202;BME280;37799;52.390;6.136;2022-12-18T07:48:17;102789.97;;;-6.98;100.00
37202;BME280;37799;52.390;6.136;2022-12-18T07:50:43;102786.13;;;-6.71;100.00
37202;BME280;37799;52.390;6.136;2022-12-18T07:53:08;102784.19;;;-6.64;100.00
37202;BME280;37799;52.390;6.136;2022-12-18T07:55:34;102787.28;;;-6.78;100.00
37202;BME280;37799;52.390;6.136;2022-12-18T07:58:03;102791.13;;;-6.83;100.00
37202;BME280;37799;52.390;6.136;2022-12-18T08:00:29;102780.09;;;-6.73;100.00
37202;BME280;37799;52.390;6.136;2022-12-18T08:02:55;102770.56;;;-6.66;100.00
37202;BME280;37799;52.390;6.136;2022-12-18T08:05:20;102753.47;;;-6.70;100.00
37202;BME280;37799;52.390;6.136;2022-12-18T08:07:46;102751.41;;;-6.75;100.00
37202;BME280;37799;52.390;6.136;2022-12-18T08:10:11;102750.97;;;-6.70;100.00
37202;BME280;37799;52.390;6.136;2022-12-18T08:12:37;102750.44;;;-6.54;100.00
37202;BME280;37799;52.390;6.136;2022-12-18T08:15:02;102753.47;;;-6.70;100.00
37202;BME280;37799;52.390;6.136;2022-12-18T08:17:28;102748.16;;;-6.63;100.00
37202;BME280;37799;52.390;6.136;2022-12-18T08:19:53;102749.50;;;-6.44;100.00
37202;BME280;37799;52.390;6.136;2022-12-18T08:22:18;102736.19;;;-6.54;100.00
37202;BME280;37799;52.390;6.136;2022-12-18T08:24:44;102740.88;;;-6.70;100.00
37202;BME280;37799;52.390;6.136;2022-12-18T08:27:10;102737.06;;;-6.65;100.00
37202;BME280;37799;52.390;6.136;2022-12-18T08:29:35;102739.72;;;-6.63;100.00
37202;BME280;37799;52.390;6.136;2022-12-18T08:32:00;102741.06;;;-6.45;100.00
37202;BME280;37799;52.390;6.136;2022-12-18T08:34:26;102734.66;;;-6.51;100.00
37202;BME280;37799;52.390;6.136;2022-12-18T08:36:51;102733.38;;;-6.46;100.00
37202;BME280;37799;52.390;6.136;2022-12-18T08:39:16;102729.03;;;-6.37;100.00
37202;BME280;37799;52.390;6.136;2022-12-18T08:41:41;102726.72;;;-6.34;100.00
37202;BME280;37799;52.390;6.136;2022-12-18T08:44:07;102725.59;;;-6.26;100.00
37202;BME280;37799;52.390;6.136;2022-12-18T08:46:52;102719.78;;;-6.25;100.00
37202;BME280;37799;52.390;6.136;2022-12-18T08:49:17;102713.00;;;-6.14;100.00
37202;BME280;37799;52.390;6.136;2022-12-18T08:51:43;102720.25;;;-6.07;100.00
37202;BME280;37799;52.390;6.136;2022-12-18T08:54:11;102712.19;;;-5.78;100.00
37202;BME280;37799;52.390;6.136;2022-12-18T08:56:36;102723.91;;;-5.67;100.00
37202;BME280;37799;52.390;6.136;2022-12-18T08:59:02;102727.28;;;-5.55;100.00
37202;BME280;37799;52.390;6.136;2022-12-18T09:01:27;102734.22;;;-5.64;100.00
37202;BME280;37799;52.390;6.136;2022-12-18T09:03:53;102732.84;;;-5.47;100.00
37202;BME280;37799;52.390;6.136;2022-12-18T09:06:20;102739.31;;;-5.39;100.00
37202;BME280;37799;52.390;6.136;2022-12-18T09:08:46;102734.38;;;-5.38;100.00
37202;BME280;37799;52.390;6.136;2022-12-18T09:11:20;102732.28;;;-5.31;100.00
37202;BME280;37799;52.390;6.136;2022-12-18T09:13:46;102728.88;;;-5.32;100.00
37202;BME280;37799;52.390;6.136;2022-12-18T09:16:12;102738.28;;;-5.18;100.00
37202;BME280;37799;52.390;6.136;2022-12-18T09:18:37;102731.16;;;-4.98;100.00
37202;BME280;37799;52.390;6.136;2022-12-18T09:21:30;102735.47;;;-4.84;100.00
37202;BME280;37799;52.390;6.136;2022-12-18T09:23:56;102728.69;;;-4.72;100.00
37202;BME280;37799;52.390;6.136;2022-12-18T09:26:22;102718.53;;;-4.47;100.00
37202;BME280;37799;52.390;6.136;2022-12-18T09:28:48;102722.06;;;-4.32;100.00
37202;BME280;37799;52.390;6.136;2022-12-18T09:31:13;102731.63;;;-4.14;100.00
37202;BME280;37799;52.390;6.136;2022-12-18T09:33:39;102734.72;;;-4.05;100.00
37202;BME280;37799;52.390;6.136;2022-12-18T09:36:07;102744.47;;;-4.11;100.00
37202;BME280;37799;52.390;6.136;2022-12-18T09:38:33;102743.31;;;-4.17;100.00
37202;BME280;37799;52.390;6.136;2022-12-18T09:41:15;102746.81;;;-4.01;100.00
37202;BME280;37799;52.390;6.136;2022-12-18T09:43:47;102747.97;;;-3.83;100.00
37202;BME280;37799;52.390;6.136;2022-12-18T09:46:18;102753.03;;;-3.83;100.00
37202;BME280;37799;52.390;6.136;2022-12-18T09:48:47;102744.66;;;-3.82;100.00
37202;BME280;37799;52.390;6.136;2022-12-18T09:51:20;102740.19;;;-3.73;100.00
37202;BME280;37799;52.390;6.136;2022-12-18T09:54:07;102739.66;;;-3.67;100.00
37202;BME280;37799;52.390;6.136;2022-12-18T09:56:40;102727.97;;;-3.65;100.00
37202;BME280;37799;52.390;6.136;2022-12-18T09:59:18;102720.03;;;-3.43;100.00
37202;BME280;37799;52.390;6.136;2022-12-18T10:01:45;102708.72;;;-3.35;100.00
37202;BME280;37799;52.390;6.136;2022-12-18T10:04:10;102705.84;;;-3.27;100.00
37202;BME280;37799;52.390;6.136;2022-12-18T10:07:08;102691.53;;;-3.26;100.00
37202;BME280;37799;52.390;6.136;2022-12-18T10:12:25;102675.81;;;-2.78;100.00
37202;BME280;37799;52.390;6.136;2022-12-18T10:17:45;102667.16;;;-2.67;100.00
37202;BME280;37799;52.390;6.136;2022-12-18T10:20:29;102663.50;;;-2.57;100.00
37202;BME280;37799;52.390;6.136;2022-12-18T10:23:21;102644.84;;;-2.43;100.00
37202;BME280;37799;52.390;6.136;2022-12-18T10:26:05;102650.72;;;-2.44;100.00
37202;BME280;37799;52.390;6.136;2022-12-18T10:28:32;102649.38;;;-2.37;100.00
37202;BME280;37799;52.390;6.136;2022-12-18T10:30:58;102642.72;;;-2.50;100.00
37202;BME280;37799;52.390;6.136;2022-12-18T10:33:29;102643.84;;;-2.30;100.00
37202;BME280;37799;52.390;6.136;2022-12-18T10:35:55;102647.03;;;-2.34;100.00
37202;BME280;37799;52.390;6.136;2022-12-18T10:38:23;102651.38;;;-2.31;100.00
37202;BME280;37799;52.390;6.136;2022-12-18T10:40:50;102652.97;;;-2.33;100.00
37202;BME280;37799;52.390;6.136;2022-12-18T10:43:20;102657.94;;;-2.20;100.00
37202;BME280;37799;52.390;6.136;2022-12-18T10:45:59;102653.56;;;-2.38;100.00
37202;BME280;37799;52.390;6.136;2022-12-18T10:48:25;102654.28;;;-2.40;100.00
37202;BME280;37799;52.390;6.136;2022-12-18T10:50:51;102645.09;;;-2.38;100.00
37202;BME280;37799;52.390;6.136;2022-12-18T10:53:31;102622.78;;;-2.29;100.00
37202;BME280;37799;52.390;6.136;2022-12-18T10:55:58;102627.63;;;-2.17;100.00
37202;BME280;37799;52.390;6.136;2022-12-18T11:06:07;102623.38;;;-2.02;100.00
37202;BME280;37799;52.390;6.136;2022-12-18T11:08:32;102620.56;;;-1.92;100.00
37202;BME280;37799;52.390;6.136;2022-12-18T11:10:58;102616.88;;;-1.97;100.00
37202;BME280;37799;52.390;6.136;2022-12-18T11:13:26;102609.75;;;-2.04;100.00
37202;BME280;37799;52.390;6.136;2022-12-18T11:15:52;102622.31;;;-1.91;100.00
37202;BME280;37799;52.390;6.136;2022-12-18T11:18:27;102618.41;;;-1.84;100.00
37202;BME280;37799;52.390;6.136;2022-12-18T11:21:11;102620.16;;;-1.83;100.00
37202;BME280;37799;52.390;6.136;2022-12-18T11:23:54;102628.97;;;-1.76;100.00
37202;BME280;37799;52.390;6.136;2022-12-18T11:26:20;102633.91;;;-1.80;100.00
37202;BME280;37799;52.390;6.136;2022-12-18T11:28:50;102626.66;;;-1.88;100.00
37202;BME280;37799;52.390;6.136;2022-12-18T11:34:31;102613.09;;;-1.89;100.00
37202;BME280;37799;52.390;6.136;2022-12-18T11:36:36;102605.78;;;-1.83;100.00
37202;BME280;37799;52.390;6.136;2022-12-18T11:39:11;102600.09;;;-1.79;100.00
37202;BME280;37799;52.390;6.136;2022-12-18T11:41:45;102582.25;;;-1.64;100.00
37202;BME280;37799;52.390;6.136;2022-12-18T11:44:48;102582.16;;;-1.65;100.00
37202;BME280;37799;52.390;6.136;2022-12-18T11:47:21;102571.84;;;-1.52;100.00
37202;BME280;37799;52.390;6.136;2022-12-18T11:49:51;102572.00;;;-1.82;100.00
37202;BME280;37799;52.390;6.136;2022-12-18T11:52:23;102574.28;;;-1.70;100.00
37202;BME280;37799;52.390;6.136;2022-12-18T11:54:56;102581.22;;;-1.67;100.00
37202;BME280;37799;52.390;6.136;2022-12-18T12:00:18;102579.19;;;-1.57;100.00
37202;BME280;37799;52.390;6.136;2022-12-18T12:03:08;102570.81;;;-1.56;100.00
37202;BME280;37799;52.390;6.136;2022-12-18T12:08:34;102550.50;;;-1.56;100.00
37202;BME280;37799;52.390;6.136;2022-12-18T12:16:34;102530.38;;;-1.51;100.00
37202;BME280;37799;52.390;6.136;2022-12-18T12:19:19;102514.81;;;-1.57;100.00
37202;BME280;37799;52.390;6.136;2022-12-18T12:21:58;102513.72;;;-1.62;100.00
37202;BME280;37799;52.390;6.136;2022-12-18T12:27:52;102496.53;;;-1.34;100.00
37202;BME280;37799;52.390;6.136;2022-12-18T12:33:19;102512.16;;;-1.26;100.00
37202;BME280;37799;52.390;6.136;2022-12-18T12:35:55;102505.69;;;-1.20;100.00
37202;BME280;37799;52.390;6.136;2022-12-18T12:38:40;102509.91;;;-1.20;100.00
37202;BME280;37799;52.390;6.136;2022-12-18T12:41:09;102501.47;;;-1.19;100.00
37202;BME280;37799;52.390;6.136;2022-12-18T12:43:59;102505.84;;;-1.16;100.00
37202;BME280;37799;52.390;6.136;2022-12-18T12:46:26;102499.59;;;-1.05;100.00
37202;BME280;37799;52.390;6.136;2022-12-18T12:48:56;102491.81;;;-1.08;100.00
37202;BME280;37799;52.390;6.136;2022-12-18T12:51:26;102488.94;;;-1.16;100.00
37202;BME280;37799;52.390;6.136;2022-12-18T12:53:54;102498.50;;;-1.10;100.00
37202;BME280;37799;52.390;6.136;2022-12-18T12:56:22;102494.66;;;-1.20;100.00
37202;BME280;37799;52.390;6.136;2022-12-18T12:59:04;102488.84;;;-1.17;100.00
37202;BME280;37799;52.390;6.136;2022-12-18T13:01:49;102476.38;;;-1.13;100.00
37202;BME280;37799;52.390;6.136;2022-12-18T13:04:21;102459.66;;;-1.26;100.00
37202;BME280;37799;52.390;6.136;2022-12-18T13:07:15;102466.53;;;-1.05;100.00
37202;BME280;37799;52.390;6.136;2022-12-18T13:20:40;102455.22;;;-0.94;100.00
37202;BME280;37799;52.390;6.136;2022-12-18T13:23:38;102467.91;;;-0.94;100.00
37202;BME280;37799;52.390;6.136;2022-12-18T13:30:59;102447.94;;;-1.04;100.00
37202;BME280;37799;52.390;6.136;2022-12-18T13:36:01;102440.19;;;-0.90;100.00
37202;BME280;37799;52.390;6.136;2022-12-18T13:41:04;102433.31;;;-0.73;100.00
37202;BME280;37799;52.390;6.136;2022-12-18T13:43:51;102445.03;;;-0.76;100.00
37202;BME280;37799;52.390;6.136;2022-12-18T13:46:23;102443.97;;;-0.99;100.00
37202;BME280;37799;52.390;6.136;2022-12-18T13:48:59;102443.44;;;-0.92;100.00
37202;BME280;37799;52.390;6.136;2022-12-18T13:51:27;102445.09;;;-0.93;100.00
37202;BME280;37799;52.390;6.136;2022-12-18T13:53:59;102435.09;;;-0.90;100.00
37202;BME280;37799;52.390;6.136;2022-12-18T13:56:28;102435.09;;;-0.90;100.00
37202;BME280;37799;52.390;6.136;2022-12-18T14:04:22;102418.97;;;-0.90;100.00
37202;BME280;37799;52.390;6.136;2022-12-18T14:06:51;102412.97;;;-0.73;100.00